アシガバート の空港の天気 - METARとTAF

アシガバート空港 ( UTAA / ASB ) - トルクメニスタン アシガバート
飛行場実況気象(Metar)
観測時間02/28 05:00 +05 (02/28 00:00 UTC)
風向・風速東南東 2m/s
視程10km以上
天気現象
全天を覆う雲 雲底高度 910m
気温5℃
湿度75%
気圧1024hPa
METARUTAA 280000Z 12004KT 9999 OVC030 05/01 Q1024 R12R/CLRD70 NOSIG
過去の天気等 Google飛行場航空写真 Wunderground天気予報

過去48時間のMETAR

飛行場予報(TAF)
発表時間: 2/27 21:30 +05 (2/27 16:30 UTC)
予報対象時間: 27日23時 +05 ~ 28日23時 +05
風向・風速北西 6m/s
視程5,000m
全天の8割程度の雲 雲底高度 460m
全天の4割程度の積乱雲 雲底高度 910m
27日23時 +05 ~ 28日4時 +05 に一時的に
風向・風速南西 5m/s
28日4時 +05 ~ 28日9時 +05 に一時的に
視程2,000m
天気現象もや
全天の4割程度の雲 雲底高度 180m
28日10時 +05 ~ 28日12時 +05 に徐々に
風向・風速東 8m/s
TAF UTAA 271630Z 2718/2818 32012KT 5000 BKN015 SCT030CB 530005
TEMPO 2718/2723 22010KT
TEMPO 2723/2804 2000 BR SCT006
BECMG 2805/2807 09016KT